createdAt,value
2019-02-19T00:01:05.010Z,4.00
2019-02-19T00:06:08.951Z,4.00
2019-02-19T00:11:12.774Z,4.60
2019-02-19T00:16:16.618Z,4.50
2019-02-19T00:21:20.403Z,3.50
2019-02-19T00:26:24.358Z,4.00
2019-02-19T00:31:28.158Z,4.25
2019-02-19T00:36:31.949Z,3.50
2019-02-19T00:41:35.805Z,4.00
2019-02-19T00:46:39.639Z,3.75
2019-02-19T00:51:43.460Z,4.00
2019-02-19T00:56:47.241Z,4.00
2019-02-19T01:01:51.123Z,4.00
2019-02-19T01:06:54.934Z,3.00
2019-02-19T01:11:58.872Z,3.00
2019-02-19T01:17:02.693Z,3.00
2019-02-19T01:22:06.485Z,3.00
2019-02-19T01:27:10.331Z,3.00
2019-02-19T01:32:14.148Z,3.00
2019-02-19T01:37:17.968Z,3.00
2019-02-19T01:42:21.756Z,4.00
2019-02-19T01:47:25.614Z,3.00
2019-02-19T01:52:29.414Z,4.40
2019-02-19T01:57:33.215Z,3.80
2019-02-19T02:02:37.101Z,3.80
2019-02-19T02:07:40.930Z,3.75
2019-02-19T02:12:44.817Z,3.00
2019-02-19T02:17:48.879Z,2.75
2019-02-19T02:22:52.740Z,2.75
2019-02-19T02:27:56.625Z,3.00
2019-02-19T02:33:00.546Z,2.25
2019-02-19T02:38:04.351Z,3.40
2019-02-19T02:43:08.184Z,3.00
2019-02-19T02:48:11.988Z,2.00
2019-02-19T02:53:15.892Z,3.00
2019-02-19T02:58:19.766Z,3.75
2019-02-19T03:03:23.681Z,4.00
2019-02-19T03:08:27.467Z,3.00
2019-02-19T03:13:31.285Z,2.00
2019-02-19T03:18:35.087Z,3.00
2019-02-19T03:23:38.899Z,3.60
2019-02-19T03:28:42.715Z,2.00
2019-02-19T03:33:46.553Z,4.00
2019-02-19T03:38:50.358Z,3.75
2019-02-19T03:43:54.266Z,2.40
2019-02-19T03:48:58.171Z,2.20
2019-02-19T03:54:02.052Z,2.60
2019-02-19T03:59:05.893Z,3.00
2019-02-19T04:04:09.735Z,3.00
2019-02-19T04:09:13.575Z,3.00
2019-02-19T04:14:17.435Z,3.00
2019-02-19T04:19:21.292Z,3.00
2019-02-19T04:24:25.142Z,2.20
2019-02-19T04:29:28.953Z,2.50
2019-02-19T04:34:32.927Z,2.00
2019-02-19T04:39:36.781Z,3.25
2019-02-19T04:44:40.632Z,2.25
2019-02-19T04:49:44.508Z,2.75
2019-02-19T04:54:48.363Z,3.00
2019-02-19T04:59:52.207Z,3.00
2019-02-19T05:04:56.047Z,3.20
2019-02-19T05:09:59.853Z,2.00
2019-02-19T05:15:03.694Z,3.00
2019-02-19T05:20:07.820Z,4.00
2019-02-19T05:25:11.635Z,3.20
2019-02-19T05:30:15.436Z,3.80
2019-02-19T05:35:19.279Z,2.50
2019-02-19T05:40:23.102Z,4.00
2019-02-19T05:45:26.907Z,5.00
2019-02-19T05:50:30.732Z,5.25
2019-02-19T05:55:34.535Z,3.00
2019-02-19T06:00:38.310Z,3.00
2019-02-19T06:05:42.137Z,4.00
2019-02-19T06:10:45.945Z,3.00
2019-02-19T06:15:49.732Z,3.50
2019-02-19T06:20:53.509Z,3.25
2019-02-19T06:25:57.305Z,3.60
2019-02-19T06:31:01.107Z,4.00
2019-02-19T06:36:04.895Z,4.00
2019-02-19T06:41:08.682Z,3.00
2019-02-19T06:46:12.486Z,3.00
2019-02-19T06:51:16.274Z,4.00
2019-02-19T06:56:20.065Z,3.00
2019-02-19T07:01:43.350Z,3.25
2019-02-19T07:06:47.151Z,3.00
2019-02-19T07:11:50.959Z,3.00
2019-02-19T07:16:54.736Z,3.75
2019-02-19T07:21:58.522Z,3.00
2019-02-19T07:27:02.304Z,3.40
2019-02-19T07:32:06.085Z,3.50
2019-02-19T07:37:10.114Z,3.00
2019-02-19T07:42:13.978Z,3.40
2019-02-19T07:47:24.360Z,2.50
2019-02-19T07:52:23.388Z,22.20
2019-02-19T07:57:27.177Z,22.60
2019-02-19T08:02:31.072Z,27.20
2019-02-19T08:07:34.933Z,24.00
2019-02-19T08:12:38.744Z,21.75
2019-02-19T08:17:42.541Z,21.00
2019-02-19T08:22:46.331Z,19.00
2019-02-19T08:27:51.281Z,17.00
2019-02-19T08:32:55.309Z,14.75
2019-02-19T08:37:59.114Z,16.60
2019-02-19T08:43:02.919Z,14.80
2019-02-19T08:48:06.737Z,12.75
2019-02-19T08:53:10.523Z,13.50
2019-02-19T08:58:14.330Z,12.75
2019-02-19T09:03:18.168Z,13.50
2019-02-19T09:08:21.976Z,12.00
2019-02-19T09:13:25.794Z,12.00
2019-02-19T09:18:29.678Z,11.00
2019-02-19T09:23:33.566Z,13.00
2019-02-19T09:28:37.394Z,12.40
2019-02-19T09:33:41.226Z,12.50
2019-02-19T09:38:45.032Z,12.50
2019-02-19T09:43:48.899Z,10.60
2019-02-19T09:48:52.688Z,11.50
2019-02-19T09:53:56.492Z,11.00
2019-02-19T09:59:00.424Z,11.00
2019-02-19T10:04:04.253Z,11.00
2019-02-19T10:09:09.367Z,12.75
2019-02-19T10:14:13.190Z,13.25
2019-02-19T10:19:16.991Z,11.50
2019-02-19T10:24:20.882Z,12.00
2019-02-19T10:29:24.681Z,11.00
2019-02-19T10:34:28.618Z,11.20
2019-02-19T10:39:32.442Z,11.50
2019-02-19T10:44:36.309Z,11.20
2019-02-19T10:49:40.106Z,13.50
2019-02-19T10:54:43.900Z,12.00
2019-02-19T10:59:47.734Z,9.75
2019-02-19T11:04:51.552Z,11.25
2019-02-19T11:09:55.336Z,11.40
2019-02-19T11:14:59.133Z,12.40
2019-02-19T11:20:02.939Z,12.75
2019-02-19T11:25:08.634Z,11.80
2019-02-19T11:30:14.474Z,12.50
2019-02-19T11:35:18.306Z,13.00
2019-02-19T11:40:22.162Z,13.75
2019-02-19T11:45:26.046Z,12.20
2019-02-19T11:50:29.874Z,12.00
2019-02-19T11:55:33.675Z,12.75
2019-02-19T12:00:39.668Z,13.50
2019-02-19T12:05:43.502Z,11.75
2019-02-19T12:10:47.327Z,13.00
2019-02-19T12:15:51.157Z,13.40
2019-02-19T12:20:54.966Z,19.80
2019-02-19T12:25:58.794Z,19.80
2019-02-19T12:31:02.631Z,22.00
2019-02-19T12:36:06.458Z,15.00
2019-02-19T12:41:10.260Z,14.00
2019-02-19T12:46:14.110Z,14.00
2019-02-19T12:51:26.124Z,13.60
2019-02-19T12:56:23.507Z,14.40
2019-02-19T13:01:27.347Z,13.00
2019-02-19T13:06:31.150Z,12.00
2019-02-19T13:11:34.965Z,11.60
2019-02-19T13:16:38.816Z,9.25
2019-02-19T13:21:42.638Z,9.75
2019-02-19T13:26:46.440Z,11.00
2019-02-19T13:31:50.262Z,10.00
2019-02-19T13:36:54.064Z,9.80
2019-02-19T13:41:57.876Z,8.25
2019-02-19T13:47:01.669Z,10.50
2019-02-19T13:52:22.362Z,11.00
2019-02-19T13:57:20.338Z,10.00
2019-02-19T14:02:24.184Z,11.00
2019-02-19T14:07:28.073Z,8.00
2019-02-19T14:12:31.888Z,10.00
2019-02-19T14:17:35.752Z,11.75
2019-02-19T14:22:57.521Z,8.60
2019-02-19T14:28:19.209Z,10.00
2019-02-19T14:33:36.755Z,8.80
2019-02-19T14:38:59.547Z,8.00
2019-02-19T14:44:20.856Z,9.50
2019-02-19T14:49:47.675Z,7.50
2019-02-19T14:55:05.377Z,10.50
2019-02-19T15:00:43.514Z,7.80
2019-02-19T15:06:04.904Z,8.00
2019-02-19T15:11:26.336Z,9.00
2019-02-19T15:16:41.081Z,8.00
2019-02-19T15:22:02.514Z,8.60
2019-02-19T15:27:28.277Z,9.00
2019-02-19T15:32:51.097Z,10.60
2019-02-19T15:38:13.962Z,8.75
2019-02-19T15:43:32.469Z,7.00
2019-02-19T15:49:04.097Z,7.80
2019-02-19T15:54:14.807Z,7.20
2019-02-19T15:59:25.910Z,7.50
2019-02-19T16:04:37.628Z,8.00
2019-02-19T16:10:12.487Z,7.50
2019-02-19T16:15:34.074Z,8.00
2019-02-19T16:20:50.909Z,10.25
2019-02-19T16:26:23.056Z,7.00
2019-02-19T16:31:52.313Z,6.80
2019-02-19T16:37:11.194Z,6.50
2019-02-19T16:42:39.095Z,8.60
2019-02-19T16:48:04.887Z,7.00
2019-02-19T16:53:33.728Z,7.50
2019-02-19T16:58:46.671Z,7.00
2019-02-19T17:03:57.481Z,7.00
2019-02-19T17:09:20.260Z,7.25
2019-02-19T17:14:41.973Z,6.20
2019-02-19T17:20:03.724Z,7.00
2019-02-19T17:25:35.443Z,6.20
2019-02-19T17:31:01.123Z,7.00
2019-02-19T17:36:22.905Z,6.00
2019-02-19T17:41:43.160Z,6.75
2019-02-19T17:46:59.791Z,5.80
2019-02-19T17:52:25.612Z,7.00
2019-02-19T17:57:42.096Z,6.00
2019-02-19T18:02:53.591Z,6.00
2019-02-19T18:08:19.126Z,7.00
2019-02-19T18:13:36.126Z,7.00
2019-02-19T18:18:48.112Z,6.50
2019-02-19T18:23:51.904Z,7.00
2019-02-19T18:28:55.695Z,7.75
2019-02-19T18:33:59.498Z,7.00
2019-02-19T18:39:04.775Z,6.25
2019-02-19T18:44:08.594Z,7.00
2019-02-19T18:49:12.398Z,7.00
2019-02-19T18:54:16.212Z,6.25
2019-02-19T18:59:20.118Z,5.00
2019-02-19T19:04:24.031Z,6.40
2019-02-19T19:09:27.867Z,7.00
2019-02-19T19:14:31.984Z,7.00
2019-02-19T19:19:35.911Z,7.00
2019-02-19T19:24:39.693Z,7.00
2019-02-19T19:29:43.549Z,8.40
2019-02-19T19:34:47.423Z,7.00
2019-02-19T19:39:51.220Z,7.00
2019-02-19T19:44:55.137Z,7.00
2019-02-19T19:49:58.971Z,5.75
2019-02-19T19:55:02.878Z,7.75
2019-02-19T20:00:08.434Z,8.00
2019-02-19T20:05:13.089Z,5.50
2019-02-19T20:10:17.154Z,5.80
2019-02-19T20:15:20.950Z,5.00
2019-02-19T20:20:24.807Z,7.00
2019-02-19T20:25:28.713Z,7.00
2019-02-19T20:30:32.497Z,6.75
2019-02-19T20:35:36.296Z,8.00
2019-02-19T20:40:40.183Z,5.50
2019-02-19T20:45:44.093Z,5.25
2019-02-19T20:50:47.941Z,4.00
2019-02-19T20:55:51.720Z,7.00
2019-02-19T21:00:55.530Z,5.25
2019-02-19T21:06:00.422Z,7.00
2019-02-19T21:11:04.263Z,5.80
2019-02-19T21:16:08.032Z,7.00
2019-02-19T21:21:11.925Z,5.80
2019-02-19T21:26:15.787Z,4.00
2019-02-19T21:31:19.584Z,4.00
2019-02-19T21:36:23.556Z,4.50
2019-02-19T21:41:27.479Z,6.00
2019-02-19T21:46:31.270Z,4.75
2019-02-19T21:51:35.108Z,5.40
2019-02-19T21:56:38.924Z,6.60
2019-02-19T22:01:42.737Z,6.00
2019-02-19T22:06:46.583Z,4.00
2019-02-19T22:11:50.438Z,4.00
2019-02-19T22:16:54.353Z,5.80
2019-02-19T22:22:09.076Z,5.20
2019-02-19T22:27:12.924Z,4.50
2019-02-19T22:32:18.779Z,4.40
2019-02-19T22:37:22.558Z,4.00
2019-02-19T22:42:26.343Z,5.50
2019-02-19T22:47:30.274Z,6.40
2019-02-19T22:52:34.199Z,4.00
2019-02-19T22:57:38.105Z,6.25
2019-02-19T23:02:42.868Z,5.80
2019-02-19T23:07:46.870Z,5.00
2019-02-19T23:12:50.691Z,4.00
2019-02-19T23:17:54.474Z,4.75
2019-02-19T23:22:58.273Z,3.00
2019-02-19T23:28:02.117Z,4.40
2019-02-19T23:33:05.927Z,4.20
2019-02-19T23:38:09.704Z,4.25
2019-02-19T23:43:14.265Z,6.00
2019-02-19T23:48:18.054Z,3.75
2019-02-19T23:53:21.865Z,4.00
2019-02-19T23:58:25.656Z,4.00
